sensor_id;sensor_type;location;lat;lon;timestamp;pressure;altitude;pressure_sealevel;temperature;humidity
47260;BME280;32999;52.412;4.890;2023-06-14T00:04:10;101483.84;;;19.65;100.00
47260;BME280;32999;52.412;4.890;2023-06-14T00:09:13;101573.88;;;20.04;100.00
47260;BME280;32999;52.412;4.890;2023-06-14T00:14:16;101596.78;;;20.20;100.00
47260;BME280;32999;52.412;4.890;2023-06-14T00:19:17;101469.56;;;19.40;100.00
47260;BME280;32999;52.412;4.890;2023-06-14T00:24:20;101511.75;;;19.54;100.00
47260;BME280;32999;52.412;4.890;2023-06-14T00:29:23;101515.31;;;19.55;100.00
47260;BME280;32999;52.412;4.890;2023-06-14T00:34:24;101590.84;;;19.81;100.00
47260;BME280;32999;52.412;4.890;2023-06-14T00:39:26;101596.94;;;19.95;100.00
47260;BME280;32999;52.412;4.890;2023-06-14T00:44:29;101602.38;;;19.95;100.00
47260;BME280;32999;52.412;4.890;2023-06-14T00:49:31;101602.09;;;19.85;100.00
47260;BME280;32999;52.412;4.890;2023-06-14T00:54:33;101604.06;;;19.78;100.00
47260;BME280;32999;52.412;4.890;2023-06-14T00:59:40;101610.91;;;19.80;100.00
47260;BME280;32999;52.412;4.890;2023-06-14T01:04:45;101605.31;;;19.93;100.00
47260;BME280;32999;52.412;4.890;2023-06-14T01:09:55;101471.28;;;19.05;100.00
47260;BME280;32999;52.412;4.890;2023-06-14T01:15:02;101601.81;;;19.75;100.00
47260;BME280;32999;52.412;4.890;2023-06-14T01:20:04;101557.38;;;19.39;100.00
47260;BME280;32999;52.412;4.890;2023-06-14T01:25:11;101479.25;;;18.81;100.00
47260;BME280;32999;52.412;4.890;2023-06-14T01:30:14;101606.31;;;19.44;100.00
47260;BME280;32999;52.412;4.890;2023-06-14T01:35:16;101498.19;;;18.81;100.00
47260;BME280;32999;52.412;4.890;2023-06-14T01:40:20;101471.94;;;18.39;100.00
47260;BME280;32999;52.412;4.890;2023-06-14T01:45:23;101624.38;;;19.32;100.00
47260;BME280;32999;52.412;4.890;2023-06-14T01:50:28;101573.88;;;19.01;100.00
47260;BME280;32999;52.412;4.890;2023-06-14T01:55:31;101561.09;;;18.83;100.00
47260;BME280;32999;52.412;4.890;2023-06-14T02:00:37;101609.31;;;19.18;100.00
47260;BME280;32999;52.412;4.890;2023-06-14T02:05:39;101635.09;;;19.27;100.00
47260;BME280;32999;52.412;4.890;2023-06-14T02:10:42;101613.44;;;19.02;100.00
47260;BME280;32999;52.412;4.890;2023-06-14T02:15:43;101571.06;;;18.64;100.00
47260;BME280;32999;52.412;4.890;2023-06-14T02:20:45;101618.59;;;18.85;100.00
47260;BME280;32999;52.412;4.890;2023-06-14T02:25:48;101456.03;;;17.74;100.00
47260;BME280;32999;52.412;4.890;2023-06-14T02:30:50;101599.19;;;18.63;100.00
47260;BME280;32999;52.412;4.890;2023-06-14T02:35:52;101611.03;;;18.38;100.00
47260;BME280;32999;52.412;4.890;2023-06-14T02:40:55;101627.84;;;18.46;100.00
47260;BME280;32999;52.412;4.890;2023-06-14T02:45:57;101469.88;;;17.53;100.00
47260;BME280;32999;52.412;4.890;2023-06-14T02:50:58;101586.59;;;18.19;100.00
47260;BME280;32999;52.412;4.890;2023-06-14T02:56:01;101553.88;;;17.96;100.00
47260;BME280;32999;52.412;4.890;2023-06-14T03:01:04;101609.59;;;18.35;100.00
47260;BME280;32999;52.412;4.890;2023-06-14T03:06:08;101567.56;;;18.01;100.00
47260;BME280;32999;52.412;4.890;2023-06-14T03:11:14;101623.94;;;18.35;100.00
47260;BME280;32999;52.412;4.890;2023-06-14T03:16:18;101627.00;;;18.14;100.00
47260;BME280;32999;52.412;4.890;2023-06-14T03:21:22;101626.66;;;18.04;100.00
47260;BME280;32999;52.412;4.890;2023-06-14T03:26:25;101652.47;;;18.00;100.00
47260;BME280;32999;52.412;4.890;2023-06-14T03:31:28;101601.22;;;17.74;100.00
47260;BME280;32999;52.412;4.890;2023-06-14T03:36:32;101644.16;;;17.95;100.00
47260;BME280;32999;52.412;4.890;2023-06-14T03:41:36;101668.28;;;17.96;100.00
47260;BME280;32999;52.412;4.890;2023-06-14T03:46:38;101649.13;;;18.05;100.00
47260;BME280;32999;52.412;4.890;2023-06-14T03:51:40;101656.66;;;17.89;100.00
47260;BME280;32999;52.412;4.890;2023-06-14T03:56:43;101649.16;;;17.98;100.00
47260;BME280;32999;52.412;4.890;2023-06-14T04:01:46;101633.72;;;17.54;100.00
47260;BME280;32999;52.412;4.890;2023-06-14T04:06:48;101572.41;;;17.41;100.00
47260;BME280;32999;52.412;4.890;2023-06-14T04:11:52;101679.56;;;17.87;100.00
47260;BME280;32999;52.412;4.890;2023-06-14T04:16:53;101669.94;;;18.04;100.00
47260;BME280;32999;52.412;4.890;2023-06-14T04:21:55;101665.47;;;17.78;100.00
47260;BME280;32999;52.412;4.890;2023-06-14T04:26:58;101682.06;;;17.82;100.00
47260;BME280;32999;52.412;4.890;2023-06-14T04:32:01;101642.03;;;17.52;100.00
47260;BME280;32999;52.412;4.890;2023-06-14T04:37:03;101702.09;;;17.74;100.00
47260;BME280;32999;52.412;4.890;2023-06-14T04:42:07;101699.78;;;17.78;100.00
47260;BME280;32999;52.412;4.890;2023-06-14T04:47:12;101693.34;;;17.79;100.00
47260;BME280;32999;52.412;4.890;2023-06-14T04:52:14;101688.31;;;17.82;100.00
47260;BME280;32999;52.412;4.890;2023-06-14T04:57:19;101690.56;;;17.98;100.00
47260;BME280;32999;52.412;4.890;2023-06-14T05:02:22;101697.03;;;17.91;100.00
47260;BME280;32999;52.412;4.890;2023-06-14T05:07:24;101653.25;;;17.49;100.00
47260;BME280;32999;52.412;4.890;2023-06-14T05:12:27;101695.94;;;18.05;100.00
47260;BME280;32999;52.412;4.890;2023-06-14T05:17:30;101701.09;;;18.07;100.00
47260;BME280;32999;52.412;4.890;2023-06-14T05:22:32;101681.44;;;17.86;100.00
47260;BME280;32999;52.412;4.890;2023-06-14T05:27:35;101706.56;;;18.00;100.00
47260;BME280;32999;52.412;4.890;2023-06-14T05:32:37;101657.66;;;18.01;100.00
47260;BME280;32999;52.412;4.890;2023-06-14T05:37:39;101723.34;;;18.60;100.00
47260;BME280;32999;52.412;4.890;2023-06-14T05:42:42;101713.38;;;18.54;100.00
47260;BME280;32999;52.412;4.890;2023-06-14T05:47:44;101647.09;;;17.93;100.00
47260;BME280;32999;52.412;4.890;2023-06-14T05:52:46;101744.09;;;18.79;100.00
47260;BME280;32999;52.412;4.890;2023-06-14T05:57:49;101721.47;;;18.60;100.00
47260;BME280;32999;52.412;4.890;2023-06-14T06:02:51;101697.44;;;18.77;100.00
47260;BME280;32999;52.412;4.890;2023-06-14T06:07:53;101682.47;;;18.68;100.00
47260;BME280;32999;52.412;4.890;2023-06-14T06:12:56;101727.16;;;19.09;100.00
47260;BME280;32999;52.412;4.890;2023-06-14T06:17:58;101646.22;;;18.94;100.00
47260;BME280;32999;52.412;4.890;2023-06-14T06:23:00;101736.22;;;19.52;100.00
47260;BME280;32999;52.412;4.890;2023-06-14T06:28:03;101748.56;;;19.66;100.00
47260;BME280;32999;52.412;4.890;2023-06-14T06:33:05;101748.66;;;19.78;100.00
47260;BME280;32999;52.412;4.890;2023-06-14T06:38:07;101741.09;;;19.80;100.00
47260;BME280;32999;52.412;4.890;2023-06-14T06:43:11;101637.03;;;19.20;100.00
47260;BME280;32999;52.412;4.890;2023-06-14T06:48:13;101667.59;;;19.70;100.00
47260;BME280;32999;52.412;4.890;2023-06-14T06:53:16;101671.13;;;19.70;100.00
47260;BME280;32999;52.412;4.890;2023-06-14T06:58:20;101753.69;;;20.48;100.00
47260;BME280;32999;52.412;4.890;2023-06-14T07:03:22;101685.66;;;20.43;100.00
47260;BME280;32999;52.412;4.890;2023-06-14T07:08:24;101783.97;;;21.46;100.00
47260;BME280;32999;52.412;4.890;2023-06-14T07:13:27;101768.63;;;21.10;100.00
47260;BME280;32999;52.412;4.890;2023-06-14T07:18:28;101773.16;;;21.16;100.00
47260;BME280;32999;52.412;4.890;2023-06-14T07:23:30;101730.84;;;20.67;100.00
47260;BME280;32999;52.412;4.890;2023-06-14T07:28:34;101740.91;;;21.31;100.00
47260;BME280;32999;52.412;4.890;2023-06-14T07:33:36;101746.59;;;21.30;100.00
47260;BME280;32999;52.412;4.890;2023-06-14T07:38:37;101795.09;;;21.68;100.00
47260;BME280;32999;52.412;4.890;2023-06-14T07:43:42;101793.69;;;21.77;100.00
47260;BME280;32999;52.412;4.890;2023-06-14T07:48:43;101792.25;;;21.98;100.00
47260;BME280;32999;52.412;4.890;2023-06-14T07:53:45;101808.19;;;22.29;99.59
47260;BME280;32999;52.412;4.890;2023-06-14T07:58:48;101795.38;;;22.70;94.24
47260;BME280;32999;52.412;4.890;2023-06-14T08:03:50;101754.75;;;22.68;89.39
47260;BME280;32999;52.412;4.890;2023-06-14T08:08:52;101809.38;;;23.35;92.51
47260;BME280;32999;52.412;4.890;2023-06-14T08:13:55;101821.72;;;23.55;86.78
47260;BME280;32999;52.412;4.890;2023-06-14T08:18:56;101791.34;;;24.06;85.19
47260;BME280;32999;52.412;4.890;2023-06-14T08:23:58;101671.59;;;23.71;78.04
47260;BME280;32999;52.412;4.890;2023-06-14T08:29:02;101666.38;;;23.92;73.35
47260;BME280;32999;52.412;4.890;2023-06-14T08:34:03;101755.94;;;24.87;71.45
47260;BME280;32999;52.412;4.890;2023-06-14T08:39:06;101775.44;;;25.23;67.31
47260;BME280;32999;52.412;4.890;2023-06-14T08:44:10;101780.34;;;26.00;61.71
47260;BME280;32999;52.412;4.890;2023-06-14T08:49:12;101777.06;;;26.65;61.51
47260;BME280;32999;52.412;4.890;2023-06-14T08:54:15;101689.19;;;25.57;58.04
47260;BME280;32999;52.412;4.890;2023-06-14T08:59:18;101752.34;;;26.45;57.55
47260;BME280;32999;52.412;4.890;2023-06-14T09:04:21;101721.25;;;26.24;56.50
47260;BME280;32999;52.412;4.890;2023-06-14T09:09:24;101659.94;;;26.61;52.19
47260;BME280;32999;52.412;4.890;2023-06-14T09:14:27;101711.69;;;28.83;47.33
47260;BME280;32999;52.412;4.890;2023-06-14T09:19:29;101732.38;;;29.09;45.78
47260;BME280;32999;52.412;4.890;2023-06-14T09:24:30;101752.06;;;28.92;46.86
47260;BME280;32999;52.412;4.890;2023-06-14T09:29:34;101744.56;;;27.99;44.83
47260;BME280;32999;52.412;4.890;2023-06-14T09:34:35;101733.13;;;28.86;44.08
47260;BME280;32999;52.412;4.890;2023-06-14T09:39:49;101645.34;;;29.85;43.63
47260;BME280;32999;52.412;4.890;2023-06-14T09:44:54;101599.88;;;29.44;41.77
47260;BME280;32999;52.412;4.890;2023-06-14T09:49:56;101701.88;;;30.06;39.07
47260;BME280;32999;52.412;4.890;2023-06-14T09:54:59;101712.25;;;30.70;39.31
47260;BME280;32999;52.412;4.890;2023-06-14T10:00:02;101681.63;;;30.34;38.20
47260;BME280;32999;52.412;4.890;2023-06-14T10:05:12;101659.50;;;32.14;37.26
47260;BME280;32999;52.412;4.890;2023-06-14T10:10:16;101673.28;;;32.86;36.61
47260;BME280;32999;52.412;4.890;2023-06-14T10:15:23;101659.78;;;31.63;35.72
47260;BME280;32999;52.412;4.890;2023-06-14T10:20:35;101616.91;;;33.61;35.37
47260;BME280;32999;52.412;4.890;2023-06-14T10:25:39;101667.59;;;33.13;33.20
47260;BME280;32999;52.412;4.890;2023-06-14T10:31:01;101651.25;;;32.59;36.63
47260;BME280;32999;52.412;4.890;2023-06-14T10:36:25;101670.38;;;33.22;33.51
47260;BME280;32999;52.412;4.890;2023-06-14T10:41:35;101695.63;;;32.90;35.00
47260;BME280;32999;52.412;4.890;2023-06-14T10:46:39;101612.31;;;33.48;32.18
47260;BME280;32999;52.412;4.890;2023-06-14T10:51:42;101636.16;;;32.42;34.64
47260;BME280;32999;52.412;4.890;2023-06-14T10:56:48;101670.41;;;33.70;34.75
47260;BME280;32999;52.412;4.890;2023-06-14T11:01:57;101658.78;;;33.11;32.52
47260;BME280;32999;52.412;4.890;2023-06-14T11:07:24;101620.25;;;34.41;32.66
47260;BME280;32999;52.412;4.890;2023-06-14T11:12:32;101707.34;;;33.18;33.17
47260;BME280;32999;52.412;4.890;2023-06-14T11:17:37;101715.63;;;34.36;35.51
47260;BME280;32999;52.412;4.890;2023-06-14T11:22:41;101667.38;;;32.57;33.79
47260;BME280;32999;52.412;4.890;2023-06-14T11:27:43;101729.88;;;33.87;35.02
47260;BME280;32999;52.412;4.890;2023-06-14T11:32:47;101692.19;;;33.46;32.58
47260;BME280;32999;52.412;4.890;2023-06-14T11:37:52;101671.47;;;33.92;31.92
47260;BME280;32999;52.412;4.890;2023-06-14T11:43:01;101624.97;;;34.58;30.27
47260;BME280;32999;52.412;4.890;2023-06-14T11:48:06;101667.06;;;33.99;31.60
47260;BME280;32999;52.412;4.890;2023-06-14T11:53:08;101667.88;;;34.95;31.69
47260;BME280;32999;52.412;4.890;2023-06-14T11:58:10;101599.94;;;34.75;30.14
47260;BME280;32999;52.412;4.890;2023-06-14T12:03:13;101569.75;;;33.53;30.19
47260;BME280;32999;52.412;4.890;2023-06-14T12:08:15;101605.50;;;33.71;31.28
47260;BME280;32999;52.412;4.890;2023-06-14T12:13:17;101659.63;;;34.34;31.32
47260;BME280;32999;52.412;4.890;2023-06-14T12:18:31;101700.16;;;33.39;32.47
47260;BME280;32999;52.412;4.890;2023-06-14T12:23:42;101646.03;;;34.50;30.09
47260;BME280;32999;52.412;4.890;2023-06-14T12:28:44;101652.63;;;32.70;30.86
47260;BME280;32999;52.412;4.890;2023-06-14T12:33:48;101653.72;;;34.44;30.23
47260;BME280;32999;52.412;4.890;2023-06-14T12:38:50;101572.66;;;33.30;30.89
47260;BME280;32999;52.412;4.890;2023-06-14T12:43:53;101554.97;;;35.28;29.16
47260;BME280;32999;52.412;4.890;2023-06-14T12:48:57;101647.91;;;35.01;29.06
47260;BME280;32999;52.412;4.890;2023-06-14T12:53:59;101634.19;;;34.96;29.14
47260;BME280;32999;52.412;4.890;2023-06-14T12:59:00;101575.63;;;34.63;28.30
47260;BME280;32999;52.412;4.890;2023-06-14T13:04:04;101586.63;;;33.91;29.72
47260;BME280;32999;52.412;4.890;2023-06-14T13:09:05;101649.94;;;32.78;31.22
47260;BME280;32999;52.412;4.890;2023-06-14T13:14:08;101721.38;;;31.03;31.63
47260;BME280;32999;52.412;4.890;2023-06-14T13:19:12;101640.22;;;29.54;32.86
47260;BME280;32999;52.412;4.890;2023-06-14T13:24:13;101817.69;;;28.70;36.80
47260;BME280;32999;52.412;4.890;2023-06-14T13:29:15;101820.69;;;27.99;37.84
47260;BME280;32999;52.412;4.890;2023-06-14T13:34:18;101849.31;;;27.57;38.78
47260;BME280;32999;52.412;4.890;2023-06-14T13:39:20;101809.25;;;27.61;37.85
47260;BME280;32999;52.412;4.890;2023-06-14T13:44:22;101755.97;;;27.27;38.82
47260;BME280;32999;52.412;4.890;2023-06-14T13:49:26;101794.38;;;27.77;38.18
47260;BME280;32999;52.412;4.890;2023-06-14T13:54:28;101782.34;;;27.18;39.03
47260;BME280;32999;52.412;4.890;2023-06-14T13:59:30;101825.72;;;27.36;40.05
47260;BME280;32999;52.412;4.890;2023-06-14T14:04:33;101724.09;;;26.55;40.27
47260;BME280;32999;52.412;4.890;2023-06-14T14:09:36;101760.59;;;26.65;41.21
47260;BME280;32999;52.412;4.890;2023-06-14T14:14:39;101679.25;;;25.93;40.97
47260;BME280;32999;52.412;4.890;2023-06-14T14:19:42;101812.47;;;26.87;41.26
47260;BME280;32999;52.412;4.890;2023-06-14T14:24:44;101734.25;;;26.59;39.74
47260;BME280;32999;52.412;4.890;2023-06-14T14:29:47;101754.56;;;26.78;40.58
47260;BME280;32999;52.412;4.890;2023-06-14T14:34:50;101794.38;;;26.91;41.33
47260;BME280;32999;52.412;4.890;2023-06-14T14:39:52;101788.34;;;26.94;41.25
47260;BME280;32999;52.412;4.890;2023-06-14T14:44:53;101789.44;;;26.93;40.53
47260;BME280;32999;52.412;4.890;2023-06-14T14:49:57;101667.09;;;26.47;40.56
47260;BME280;32999;52.412;4.890;2023-06-14T14:54:58;101768.06;;;27.26;40.76
47260;BME280;32999;52.412;4.890;2023-06-14T15:00:01;101732.38;;;26.85;40.17
47260;BME280;32999;52.412;4.890;2023-06-14T15:05:05;101785.34;;;27.06;41.32
47260;BME280;32999;52.412;4.890;2023-06-14T15:10:07;101688.97;;;26.31;41.50
47260;BME280;32999;52.412;4.890;2023-06-14T15:15:10;101713.09;;;26.34;42.10
47260;BME280;32999;52.412;4.890;2023-06-14T15:20:13;101751.16;;;25.68;43.21
47260;BME280;32999;52.412;4.890;2023-06-14T15:25:15;101790.22;;;26.01;43.47
47260;BME280;32999;52.412;4.890;2023-06-14T15:30:16;101714.19;;;25.29;44.87
47260;BME280;32999;52.412;4.890;2023-06-14T15:35:19;101794.34;;;25.61;44.35
47260;BME280;32999;52.412;4.890;2023-06-14T15:40:21;101785.38;;;25.66;43.08
47260;BME280;32999;52.412;4.890;2023-06-14T15:45:23;101737.06;;;25.13;45.21
47260;BME280;32999;52.412;4.890;2023-06-14T15:50:27;101742.16;;;25.36;47.53
47260;BME280;32999;52.412;4.890;2023-06-14T15:55:29;101766.63;;;25.95;45.82
47260;BME280;32999;52.412;4.890;2023-06-14T16:00:30;101730.72;;;25.49;45.50
47260;BME280;32999;52.412;4.890;2023-06-14T16:05:34;101706.00;;;25.34;46.05
47260;BME280;32999;52.412;4.890;2023-06-14T16:10:36;101761.03;;;25.69;47.07
47260;BME280;32999;52.412;4.890;2023-06-14T16:15:37;101745.72;;;25.79;44.93
47260;BME280;32999;52.412;4.890;2023-06-14T16:20:40;101636.84;;;25.01;46.74
47260;BME280;32999;52.412;4.890;2023-06-14T16:25:42;101698.63;;;25.34;46.60
47260;BME280;32999;52.412;4.890;2023-06-14T16:30:43;101670.19;;;25.35;45.54
47260;BME280;32999;52.412;4.890;2023-06-14T16:35:47;101754.56;;;25.54;45.63
47260;BME280;32999;52.412;4.890;2023-06-14T16:40:48;101768.16;;;25.70;47.87
47260;BME280;32999;52.412;4.890;2023-06-14T16:45:50;101778.00;;;25.34;50.19
47260;BME280;32999;52.412;4.890;2023-06-14T16:50:53;101742.06;;;25.26;49.70
47260;BME280;32999;52.412;4.890;2023-06-14T16:55:55;101792.81;;;25.38;50.45
47260;BME280;32999;52.412;4.890;2023-06-14T17:00:56;101739.28;;;25.16;52.34
47260;BME280;32999;52.412;4.890;2023-06-14T17:05:59;101693.94;;;24.93;52.29
47260;BME280;32999;52.412;4.890;2023-06-14T17:11:01;101623.94;;;24.60;51.43
47260;BME280;32999;52.412;4.890;2023-06-14T17:16:03;101780.28;;;25.48;53.56
47260;BME280;32999;52.412;4.890;2023-06-14T17:21:07;101773.72;;;25.49;53.67
47260;BME280;32999;52.412;4.890;2023-06-14T17:26:09;101773.56;;;25.28;52.98
47260;BME280;32999;52.412;4.890;2023-06-14T17:31:11;101742.72;;;24.74;56.44
47260;BME280;32999;52.412;4.890;2023-06-14T17:36:14;101760.53;;;24.82;58.09
47260;BME280;32999;52.412;4.890;2023-06-14T17:41:17;101802.91;;;25.06;60.16
47260;BME280;32999;52.412;4.890;2023-06-14T17:46:19;101740.00;;;24.79;58.30
47260;BME280;32999;52.412;4.890;2023-06-14T17:51:23;101728.38;;;24.62;59.77
47260;BME280;32999;52.412;4.890;2023-06-14T17:56:26;101755.63;;;24.84;64.25
47260;BME280;32999;52.412;4.890;2023-06-14T18:01:28;101801.56;;;24.82;65.91
47260;BME280;32999;52.412;4.890;2023-06-14T18:06:31;101803.41;;;24.76;66.09
47260;BME280;32999;52.412;4.890;2023-06-14T18:11:32;101713.28;;;24.32;66.97
47260;BME280;32999;52.412;4.890;2023-06-14T18:16:34;101793.03;;;24.78;69.86
47260;BME280;32999;52.412;4.890;2023-06-14T18:21:38;101757.41;;;24.68;76.27
47260;BME280;32999;52.412;4.890;2023-06-14T18:26:40;101729.88;;;24.48;81.96
47260;BME280;32999;52.412;4.890;2023-06-14T18:31:43;101807.28;;;24.80;83.28
47260;BME280;32999;52.412;4.890;2023-06-14T18:36:46;101795.69;;;24.68;84.31
47260;BME280;32999;52.412;4.890;2023-06-14T18:41:48;101781.97;;;24.63;82.77
47260;BME280;32999;52.412;4.890;2023-06-14T18:46:49;101788.56;;;24.67;81.86
47260;BME280;32999;52.412;4.890;2023-06-14T18:51:53;101819.94;;;24.86;78.96
47260;BME280;32999;52.412;4.890;2023-06-14T18:56:54;101707.66;;;24.17;76.14
47260;BME280;32999;52.412;4.890;2023-06-14T19:01:56;101820.88;;;24.70;72.31
47260;BME280;32999;52.412;4.890;2023-06-14T19:06:59;101828.56;;;24.73;70.72
47260;BME280;32999;52.412;4.890;2023-06-14T19:12:01;101743.16;;;24.17;70.89
47260;BME280;32999;52.412;4.890;2023-06-14T19:17:03;101748.97;;;24.04;73.03
47260;BME280;32999;52.412;4.890;2023-06-14T19:22:06;101838.63;;;24.46;73.51
47260;BME280;32999;52.412;4.890;2023-06-14T19:27:08;101833.09;;;24.40;72.75
47260;BME280;32999;52.412;4.890;2023-06-14T19:32:11;101843.28;;;24.50;73.87
47260;BME280;32999;52.412;4.890;2023-06-14T19:37:14;101799.38;;;24.13;74.86
47260;BME280;32999;52.412;4.890;2023-06-14T19:42:16;101789.84;;;23.94;76.14
47260;BME280;32999;52.412;4.890;2023-06-14T19:47:18;101803.72;;;23.92;79.92
47260;BME280;32999;52.412;4.890;2023-06-14T19:52:21;101879.91;;;24.11;82.56
47260;BME280;32999;52.412;4.890;2023-06-14T19:57:26;101867.13;;;23.94;85.43
47260;BME280;32999;52.412;4.890;2023-06-14T20:02:28;101775.97;;;23.28;87.58
47260;BME280;32999;52.412;4.890;2023-06-14T20:07:32;101844.78;;;23.47;90.82
47260;BME280;32999;52.412;4.890;2023-06-14T20:12:38;101794.97;;;23.06;93.74
47260;BME280;32999;52.412;4.890;2023-06-14T20:17:40;101814.53;;;23.03;97.58
47260;BME280;32999;52.412;4.890;2023-06-14T20:22:43;101876.97;;;23.17;96.36
47260;BME280;32999;52.412;4.890;2023-06-14T20:27:45;101886.22;;;23.16;97.60
47260;BME280;32999;52.412;4.890;2023-06-14T20:32:47;101854.09;;;22.89;94.59
47260;BME280;32999;52.412;4.890;2023-06-14T20:37:50;101801.59;;;22.54;94.67
47260;BME280;32999;52.412;4.890;2023-06-14T20:42:52;101799.75;;;22.43;97.28
47260;BME280;32999;52.412;4.890;2023-06-14T20:47:57;101819.41;;;22.33;100.00
47260;BME280;32999;52.412;4.890;2023-06-14T20:53:00;101839.31;;;22.33;100.00
47260;BME280;32999;52.412;4.890;2023-06-14T20:58:01;101914.13;;;22.66;100.00
47260;BME280;32999;52.412;4.890;2023-06-14T21:03:03;101899.31;;;22.62;100.00
47260;BME280;32999;52.412;4.890;2023-06-14T21:08:09;101832.25;;;22.09;100.00
47260;BME280;32999;52.412;4.890;2023-06-14T21:13:11;101910.00;;;22.52;100.00
47260;BME280;32999;52.412;4.890;2023-06-14T21:18:13;101911.78;;;22.34;100.00
47260;BME280;32999;52.412;4.890;2023-06-14T21:23:16;101834.75;;;21.76;100.00
47260;BME280;32999;52.412;4.890;2023-06-14T21:28:20;101924.72;;;22.16;100.00
47260;BME280;32999;52.412;4.890;2023-06-14T21:33:21;101931.69;;;22.00;100.00
47260;BME280;32999;52.412;4.890;2023-06-14T21:38:24;101827.47;;;21.04;100.00
47260;BME280;32999;52.412;4.890;2023-06-14T21:43:26;101839.78;;;21.37;100.00
47260;BME280;32999;52.412;4.890;2023-06-14T21:48:28;101923.56;;;21.70;100.00
47260;BME280;32999;52.412;4.890;2023-06-14T21:53:31;101927.97;;;21.83;100.00
47260;BME280;32999;52.412;4.890;2023-06-14T21:58:33;101897.25;;;21.41;100.00
47260;BME280;32999;52.412;4.890;2023-06-14T22:03:34;101873.81;;;21.10;100.00
47260;BME280;32999;52.412;4.890;2023-06-14T22:08:37;101952.19;;;21.61;100.00
47260;BME280;32999;52.412;4.890;2023-06-14T22:13:41;101934.19;;;21.48;100.00
47260;BME280;32999;52.412;4.890;2023-06-14T22:18:43;101948.72;;;21.54;100.00
47260;BME280;32999;52.412;4.890;2023-06-14T22:23:47;101943.53;;;21.52;100.00
47260;BME280;32999;52.412;4.890;2023-06-14T22:28:49;101953.22;;;21.48;100.00
47260;BME280;32999;52.412;4.890;2023-06-14T22:33:51;101832.88;;;20.63;100.00
47260;BME280;32999;52.412;4.890;2023-06-14T22:38:54;101886.91;;;20.71;100.00
47260;BME280;32999;52.412;4.890;2023-06-14T22:43:57;101909.81;;;20.93;100.00
47260;BME280;32999;52.412;4.890;2023-06-14T22:48:59;101959.03;;;21.22;100.00
47260;BME280;32999;52.412;4.890;2023-06-14T22:54:03;101915.88;;;20.77;100.00
47260;BME280;32999;52.412;4.890;2023-06-14T22:59:05;101908.31;;;20.79;100.00
47260;BME280;32999;52.412;4.890;2023-06-14T23:04:08;101912.25;;;20.65;100.00
47260;BME280;32999;52.412;4.890;2023-06-14T23:09:11;101908.09;;;20.62;100.00
47260;BME280;32999;52.412;4.890;2023-06-14T23:14:12;101905.00;;;20.59;100.00
47260;BME280;32999;52.412;4.890;2023-06-14T23:19:15;101957.69;;;20.94;100.00
47260;BME280;32999;52.412;4.890;2023-06-14T23:24:19;101967.78;;;20.87;100.00
47260;BME280;32999;52.412;4.890;2023-06-14T23:29:20;101982.41;;;21.04;100.00
47260;BME280;32999;52.412;4.890;2023-06-14T23:34:23;101867.84;;;20.34;100.00
47260;BME280;32999;52.412;4.890;2023-06-14T23:39:27;101958.66;;;21.00;100.00
47260;BME280;32999;52.412;4.890;2023-06-14T23:44:29;101883.00;;;20.49;100.00
47260;BME280;32999;52.412;4.890;2023-06-14T23:49:36;101839.50;;;20.30;100.00
47260;BME280;32999;52.412;4.890;2023-06-14T23:54:40;101877.38;;;20.25;100.00
47260;BME280;32999;52.412;4.890;2023-06-14T23:59:42;101937.16;;;20.62;100.00
